sensor_id;sensor_type;location;lat;lon;timestamp;P1;durP1;ratioP1;P2;durP2;ratioP2
37787;SDS011;23627;53.302;-6.362;2022-11-09T00:01:21;3.35;;;1.02;;
37787;SDS011;23627;53.302;-6.362;2022-11-09T00:03:47;3.10;;;1.00;;
37787;SDS011;23627;53.302;-6.362;2022-11-09T00:06:12;6.15;;;1.30;;
37787;SDS011;23627;53.302;-6.362;2022-11-09T00:08:39;4.72;;;1.17;;
37787;SDS011;23627;53.302;-6.362;2022-11-09T00:11:09;5.57;;;1.15;;
37787;SDS011;23627;53.302;-6.362;2022-11-09T00:13:36;3.47;;;1.15;;
37787;SDS011;23627;53.302;-6.362;2022-11-09T00:16:04;4.07;;;1.00;;
37787;SDS011;23627;53.302;-6.362;2022-11-09T00:18:30;3.83;;;0.90;;
37787;SDS011;23627;53.302;-6.362;2022-11-09T00:20:57;4.97;;;1.00;;
37787;SDS011;23627;53.302;-6.362;2022-11-09T00:23:23;6.82;;;1.05;;
37787;SDS011;23627;53.302;-6.362;2022-11-09T00:25:49;5.45;;;1.02;;
37787;SDS011;23627;53.302;-6.362;2022-11-09T00:28:15;2.60;;;0.90;;
37787;SDS011;23627;53.302;-6.362;2022-11-09T00:30:41;2.80;;;0.98;;
37787;SDS011;23627;53.302;-6.362;2022-11-09T00:33:06;4.72;;;1.20;;
37787;SDS011;23627;53.302;-6.362;2022-11-09T00:35:32;2.50;;;0.90;;
37787;SDS011;23627;53.302;-6.362;2022-11-09T00:37:58;4.70;;;0.90;;
37787;SDS011;23627;53.302;-6.362;2022-11-09T00:40:24;3.42;;;0.93;;
37787;SDS011;23627;53.302;-6.362;2022-11-09T00:42:50;5.03;;;1.00;;
37787;SDS011;23627;53.302;-6.362;2022-11-09T00:45:16;3.40;;;0.95;;
37787;SDS011;23627;53.302;-6.362;2022-11-09T00:47:43;4.57;;;1.02;;
37787;SDS011;23627;53.302;-6.362;2022-11-09T00:50:08;6.10;;;1.65;;
37787;SDS011;23627;53.302;-6.362;2022-11-09T00:52:34;3.75;;;1.30;;
37787;SDS011;23627;53.302;-6.362;2022-11-09T00:55:00;5.20;;;1.50;;
37787;SDS011;23627;53.302;-6.362;2022-11-09T00:57:26;5.30;;;1.25;;
37787;SDS011;23627;53.302;-6.362;2022-11-09T00:59:51;4.22;;;1.10;;
37787;SDS011;23627;53.302;-6.362;2022-11-09T01:02:18;4.65;;;1.38;;
37787;SDS011;23627;53.302;-6.362;2022-11-09T01:04:43;4.13;;;1.30;;
37787;SDS011;23627;53.302;-6.362;2022-11-09T01:07:09;4.57;;;1.20;;
37787;SDS011;23627;53.302;-6.362;2022-11-09T01:09:35;4.75;;;1.33;;
37787;SDS011;23627;53.302;-6.362;2022-11-09T01:12:01;5.70;;;1.35;;
37787;SDS011;23627;53.302;-6.362;2022-11-09T01:14:26;2.75;;;0.90;;
37787;SDS011;23627;53.302;-6.362;2022-11-09T01:16:52;4.38;;;1.10;;
37787;SDS011;23627;53.302;-6.362;2022-11-09T01:19:18;3.83;;;1.10;;
37787;SDS011;23627;53.302;-6.362;2022-11-09T01:21:43;2.92;;;1.00;;
37787;SDS011;23627;53.302;-6.362;2022-11-09T01:24:09;4.78;;;1.15;;
37787;SDS011;23627;53.302;-6.362;2022-11-09T01:26:35;4.15;;;1.10;;
37787;SDS011;23627;53.302;-6.362;2022-11-09T01:29:01;3.08;;;1.00;;
37787;SDS011;23627;53.302;-6.362;2022-11-09T01:31:27;4.40;;;0.98;;
37787;SDS011;23627;53.302;-6.362;2022-11-09T01:33:52;2.45;;;0.80;;
37787;SDS011;23627;53.302;-6.362;2022-11-09T01:36:19;2.78;;;0.98;;
37787;SDS011;23627;53.302;-6.362;2022-11-09T01:38:47;3.03;;;0.93;;
37787;SDS011;23627;53.302;-6.362;2022-11-09T01:41:14;5.30;;;1.08;;
37787;SDS011;23627;53.302;-6.362;2022-11-09T01:43:42;6.18;;;1.40;;
37787;SDS011;23627;53.302;-6.362;2022-11-09T01:53:50;3.33;;;0.80;;
37787;SDS011;23627;53.302;-6.362;2022-11-09T01:56:19;2.88;;;0.70;;
37787;SDS011;23627;53.302;-6.362;2022-11-09T01:58:50;4.22;;;0.90;;
37787;SDS011;23627;53.302;-6.362;2022-11-09T02:01:21;3.78;;;0.77;;
37787;SDS011;23627;53.302;-6.362;2022-11-09T02:03:54;3.70;;;0.70;;
37787;SDS011;23627;53.302;-6.362;2022-11-09T02:06:26;4.90;;;0.90;;
37787;SDS011;23627;53.302;-6.362;2022-11-09T02:08:55;3.58;;;0.80;;
37787;SDS011;23627;53.302;-6.362;2022-11-09T02:11:24;3.10;;;0.80;;
37787;SDS011;23627;53.302;-6.362;2022-11-09T02:13:54;2.80;;;0.88;;
37787;SDS011;23627;53.302;-6.362;2022-11-09T02:16:22;4.80;;;0.73;;
37787;SDS011;23627;53.302;-6.362;2022-11-09T02:18:57;4.00;;;1.25;;
37787;SDS011;23627;53.302;-6.362;2022-11-09T02:21:27;4.38;;;0.75;;
37787;SDS011;23627;53.302;-6.362;2022-11-09T02:23:55;4.18;;;0.90;;
37787;SDS011;23627;53.302;-6.362;2022-11-09T02:26:23;4.40;;;1.27;;
37787;SDS011;23627;53.302;-6.362;2022-11-09T02:28:53;3.60;;;0.88;;
37787;SDS011;23627;53.302;-6.362;2022-11-09T02:31:20;4.07;;;0.60;;
37787;SDS011;23627;53.302;-6.362;2022-11-09T02:36:15;3.25;;;0.70;;
37787;SDS011;23627;53.302;-6.362;2022-11-09T02:38:41;3.42;;;0.82;;
37787;SDS011;23627;53.302;-6.362;2022-11-09T02:41:06;3.25;;;0.85;;
37787;SDS011;23627;53.302;-6.362;2022-11-09T02:43:34;2.90;;;0.80;;
37787;SDS011;23627;53.302;-6.362;2022-11-09T02:46:01;3.33;;;0.75;;
37787;SDS011;23627;53.302;-6.362;2022-11-09T02:48:27;4.70;;;0.88;;
37787;SDS011;23627;53.302;-6.362;2022-11-09T02:50:52;2.67;;;0.77;;
37787;SDS011;23627;53.302;-6.362;2022-11-09T02:53:18;5.85;;;0.80;;
37787;SDS011;23627;53.302;-6.362;2022-11-09T02:55:44;4.97;;;0.90;;
37787;SDS011;23627;53.302;-6.362;2022-11-09T02:58:10;4.45;;;0.60;;
37787;SDS011;23627;53.302;-6.362;2022-11-09T03:00:35;3.35;;;0.60;;
37787;SDS011;23627;53.302;-6.362;2022-11-09T03:03:01;5.20;;;1.20;;
37787;SDS011;23627;53.302;-6.362;2022-11-09T03:05:28;5.00;;;0.80;;
37787;SDS011;23627;53.302;-6.362;2022-11-09T03:07:54;3.88;;;0.82;;
37787;SDS011;23627;53.302;-6.362;2022-11-09T03:10:21;3.47;;;0.60;;
37787;SDS011;23627;53.302;-6.362;2022-11-09T03:12:46;4.32;;;0.85;;
37787;SDS011;23627;53.302;-6.362;2022-11-09T03:15:12;3.63;;;0.55;;
37787;SDS011;23627;53.302;-6.362;2022-11-09T03:17:38;3.63;;;1.00;;
37787;SDS011;23627;53.302;-6.362;2022-11-09T03:20:04;5.22;;;0.80;;
37787;SDS011;23627;53.302;-6.362;2022-11-09T03:22:31;4.03;;;0.82;;
37787;SDS011;23627;53.302;-6.362;2022-11-09T03:24:56;4.10;;;0.73;;
37787;SDS011;23627;53.302;-6.362;2022-11-09T03:27:22;4.15;;;0.80;;
37787;SDS011;23627;53.302;-6.362;2022-11-09T03:29:48;6.00;;;1.15;;
37787;SDS011;23627;53.302;-6.362;2022-11-09T03:32:13;4.22;;;0.70;;
37787;SDS011;23627;53.302;-6.362;2022-11-09T03:34:39;4.85;;;0.82;;
37787;SDS011;23627;53.302;-6.362;2022-11-09T03:37:05;2.45;;;0.70;;
37787;SDS011;23627;53.302;-6.362;2022-11-09T03:39:31;4.70;;;0.90;;
37787;SDS011;23627;53.302;-6.362;2022-11-09T03:41:57;2.67;;;0.60;;
37787;SDS011;23627;53.302;-6.362;2022-11-09T03:44:23;3.28;;;0.88;;
37787;SDS011;23627;53.302;-6.362;2022-11-09T03:46:48;4.43;;;0.82;;
37787;SDS011;23627;53.302;-6.362;2022-11-09T03:49:14;5.03;;;0.93;;
37787;SDS011;23627;53.302;-6.362;2022-11-09T03:51:40;4.50;;;0.70;;
37787;SDS011;23627;53.302;-6.362;2022-11-09T03:54:06;6.13;;;0.80;;
37787;SDS011;23627;53.302;-6.362;2022-11-09T03:56:31;3.38;;;0.80;;
37787;SDS011;23627;53.302;-6.362;2022-11-09T03:58:57;2.40;;;0.60;;
37787;SDS011;23627;53.302;-6.362;2022-11-09T04:01:23;4.22;;;0.73;;
37787;SDS011;23627;53.302;-6.362;2022-11-09T04:03:48;6.25;;;0.93;;
37787;SDS011;23627;53.302;-6.362;2022-11-09T04:06:14;5.38;;;0.85;;
37787;SDS011;23627;53.302;-6.362;2022-11-09T04:08:40;2.88;;;0.60;;
37787;SDS011;23627;53.302;-6.362;2022-11-09T04:11:05;2.70;;;0.63;;
37787;SDS011;23627;53.302;-6.362;2022-11-09T04:13:31;7.07;;;0.88;;
37787;SDS011;23627;53.302;-6.362;2022-11-09T04:15:57;3.95;;;0.65;;
37787;SDS011;23627;53.302;-6.362;2022-11-09T04:18:23;6.57;;;0.80;;
37787;SDS011;23627;53.302;-6.362;2022-11-09T04:20:49;3.42;;;0.52;;
37787;SDS011;23627;53.302;-6.362;2022-11-09T04:23:14;5.03;;;0.90;;
37787;SDS011;23627;53.302;-6.362;2022-11-09T04:25:40;3.20;;;0.50;;
37787;SDS011;23627;53.302;-6.362;2022-11-09T04:28:07;4.72;;;1.00;;
37787;SDS011;23627;53.302;-6.362;2022-11-09T04:30:35;4.57;;;0.80;;
37787;SDS011;23627;53.302;-6.362;2022-11-09T04:33:02;4.97;;;0.60;;
37787;SDS011;23627;53.302;-6.362;2022-11-09T04:35:29;3.95;;;0.70;;
37787;SDS011;23627;53.302;-6.362;2022-11-09T04:37:57;2.47;;;0.60;;
37787;SDS011;23627;53.302;-6.362;2022-11-09T04:40:28;2.97;;;0.70;;
37787;SDS011;23627;53.302;-6.362;2022-11-09T04:42:58;5.07;;;0.68;;
37787;SDS011;23627;53.302;-6.362;2022-11-09T04:45:24;4.35;;;0.70;;
37787;SDS011;23627;53.302;-6.362;2022-11-09T04:47:50;3.22;;;0.90;;
37787;SDS011;23627;53.302;-6.362;2022-11-09T04:50:20;3.80;;;0.95;;
37787;SDS011;23627;53.302;-6.362;2022-11-09T04:52:46;3.72;;;0.52;;
37787;SDS011;23627;53.302;-6.362;2022-11-09T04:55:12;4.18;;;0.70;;
37787;SDS011;23627;53.302;-6.362;2022-11-09T04:57:37;2.92;;;0.68;;
37787;SDS011;23627;53.302;-6.362;2022-11-09T05:00:03;4.20;;;0.60;;
37787;SDS011;23627;53.302;-6.362;2022-11-09T05:02:29;2.85;;;0.57;;
37787;SDS011;23627;53.302;-6.362;2022-11-09T05:04:55;2.75;;;0.50;;
37787;SDS011;23627;53.302;-6.362;2022-11-09T05:07:20;1.83;;;0.40;;
37787;SDS011;23627;53.302;-6.362;2022-11-09T05:09:46;2.70;;;0.75;;
37787;SDS011;23627;53.302;-6.362;2022-11-09T05:12:12;2.67;;;0.50;;
37787;SDS011;23627;53.302;-6.362;2022-11-09T05:14:37;2.78;;;0.45;;
37787;SDS011;23627;53.302;-6.362;2022-11-09T05:17:03;2.60;;;0.50;;
37787;SDS011;23627;53.302;-6.362;2022-11-09T05:19:29;3.15;;;0.85;;
37787;SDS011;23627;53.302;-6.362;2022-11-09T05:21:55;4.68;;;0.60;;
37787;SDS011;23627;53.302;-6.362;2022-11-09T05:24:20;3.60;;;0.40;;
37787;SDS011;23627;53.302;-6.362;2022-11-09T05:26:46;1.33;;;0.40;;
37787;SDS011;23627;53.302;-6.362;2022-11-09T05:29:12;2.58;;;0.40;;
37787;SDS011;23627;53.302;-6.362;2022-11-09T05:31:38;3.85;;;0.47;;
37787;SDS011;23627;53.302;-6.362;2022-11-09T05:34:05;2.72;;;0.50;;
37787;SDS011;23627;53.302;-6.362;2022-11-09T05:36:31;2.95;;;0.30;;
37787;SDS011;23627;53.302;-6.362;2022-11-09T05:38:58;2.30;;;0.38;;
37787;SDS011;23627;53.302;-6.362;2022-11-09T05:41:25;3.15;;;0.50;;
37787;SDS011;23627;53.302;-6.362;2022-11-09T05:43:51;2.85;;;0.40;;
37787;SDS011;23627;53.302;-6.362;2022-11-09T05:46:17;4.07;;;0.50;;
37787;SDS011;23627;53.302;-6.362;2022-11-09T05:48:43;4.15;;;0.63;;
37787;SDS011;23627;53.302;-6.362;2022-11-09T05:51:11;2.40;;;0.52;;
37787;SDS011;23627;53.302;-6.362;2022-11-09T05:53:38;1.95;;;0.40;;
37787;SDS011;23627;53.302;-6.362;2022-11-09T05:56:04;2.90;;;0.60;;
37787;SDS011;23627;53.302;-6.362;2022-11-09T05:58:34;3.15;;;0.47;;
37787;SDS011;23627;53.302;-6.362;2022-11-09T06:01:05;6.13;;;0.70;;
37787;SDS011;23627;53.302;-6.362;2022-11-09T06:03:36;3.85;;;0.70;;
37787;SDS011;23627;53.302;-6.362;2022-11-09T06:06:04;5.30;;;0.88;;
37787;SDS011;23627;53.302;-6.362;2022-11-09T06:08:31;5.70;;;1.05;;
37787;SDS011;23627;53.302;-6.362;2022-11-09T06:11:01;2.38;;;0.50;;
37787;SDS011;23627;53.302;-6.362;2022-11-09T06:13:28;4.88;;;0.60;;
37787;SDS011;23627;53.302;-6.362;2022-11-09T06:15:55;2.95;;;0.60;;
37787;SDS011;23627;53.302;-6.362;2022-11-09T06:18:22;4.80;;;0.82;;
37787;SDS011;23627;53.302;-6.362;2022-11-09T06:20:50;3.55;;;0.60;;
37787;SDS011;23627;53.302;-6.362;2022-11-09T06:23:17;3.05;;;0.52;;
37787;SDS011;23627;53.302;-6.362;2022-11-09T06:25:43;4.13;;;0.63;;
37787;SDS011;23627;53.302;-6.362;2022-11-09T06:28:08;4.38;;;0.55;;
37787;SDS011;23627;53.302;-6.362;2022-11-09T06:30:34;4.43;;;0.60;;
37787;SDS011;23627;53.302;-6.362;2022-11-09T06:33:00;2.72;;;0.32;;
37787;SDS011;23627;53.302;-6.362;2022-11-09T06:35:27;4.03;;;0.60;;
37787;SDS011;23627;53.302;-6.362;2022-11-09T06:38:02;3.17;;;0.60;;
37787;SDS011;23627;53.302;-6.362;2022-11-09T06:40:28;3.15;;;0.60;;
37787;SDS011;23627;53.302;-6.362;2022-11-09T06:42:57;4.55;;;0.68;;
37787;SDS011;23627;53.302;-6.362;2022-11-09T06:45:24;2.50;;;0.50;;
37787;SDS011;23627;53.302;-6.362;2022-11-09T06:47:59;2.70;;;0.50;;
37787;SDS011;23627;53.302;-6.362;2022-11-09T06:50:26;4.97;;;0.57;;
37787;SDS011;23627;53.302;-6.362;2022-11-09T06:52:58;4.05;;;0.60;;
37787;SDS011;23627;53.302;-6.362;2022-11-09T06:55:25;2.60;;;0.47;;
37787;SDS011;23627;53.302;-6.362;2022-11-09T06:57:51;4.28;;;0.47;;
37787;SDS011;23627;53.302;-6.362;2022-11-09T07:00:17;3.90;;;0.50;;
37787;SDS011;23627;53.302;-6.362;2022-11-09T07:02:43;4.05;;;0.45;;
37787;SDS011;23627;53.302;-6.362;2022-11-09T07:05:09;3.78;;;0.55;;
37787;SDS011;23627;53.302;-6.362;2022-11-09T07:07:35;3.40;;;0.50;;
37787;SDS011;23627;53.302;-6.362;2022-11-09T07:10:01;2.00;;;0.43;;
37787;SDS011;23627;53.302;-6.362;2022-11-09T07:12:26;3.38;;;0.65;;
37787;SDS011;23627;53.302;-6.362;2022-11-09T07:14:52;3.88;;;0.60;;
37787;SDS011;23627;53.302;-6.362;2022-11-09T07:17:18;3.95;;;0.57;;
37787;SDS011;23627;53.302;-6.362;2022-11-09T07:19:43;3.50;;;0.60;;
37787;SDS011;23627;53.302;-6.362;2022-11-09T07:22:09;2.50;;;0.40;;
37787;SDS011;23627;53.302;-6.362;2022-11-09T07:24:35;3.63;;;0.40;;
37787;SDS011;23627;53.302;-6.362;2022-11-09T07:27:01;2.58;;;0.60;;
37787;SDS011;23627;53.302;-6.362;2022-11-09T07:29:27;4.28;;;0.50;;
37787;SDS011;23627;53.302;-6.362;2022-11-09T07:31:52;1.95;;;0.80;;
37787;SDS011;23627;53.302;-6.362;2022-11-09T07:34:18;3.97;;;0.55;;
37787;SDS011;23627;53.302;-6.362;2022-11-09T07:36:46;3.30;;;0.50;;
37787;SDS011;23627;53.302;-6.362;2022-11-09T07:39:13;2.72;;;0.50;;
37787;SDS011;23627;53.302;-6.362;2022-11-09T07:41:39;3.85;;;0.60;;
37787;SDS011;23627;53.302;-6.362;2022-11-09T07:44:05;4.25;;;0.35;;
37787;SDS011;23627;53.302;-6.362;2022-11-09T07:46:33;3.40;;;0.50;;
37787;SDS011;23627;53.302;-6.362;2022-11-09T07:49:00;3.50;;;0.50;;
37787;SDS011;23627;53.302;-6.362;2022-11-09T07:51:27;4.25;;;0.80;;
37787;SDS011;23627;53.302;-6.362;2022-11-09T07:56:25;3.35;;;0.50;;
37787;SDS011;23627;53.302;-6.362;2022-11-09T07:58:50;4.07;;;0.55;;
37787;SDS011;23627;53.302;-6.362;2022-11-09T08:01:16;4.18;;;0.60;;
37787;SDS011;23627;53.302;-6.362;2022-11-09T08:03:42;2.78;;;0.50;;
37787;SDS011;23627;53.302;-6.362;2022-11-09T08:06:08;2.42;;;0.50;;
37787;SDS011;23627;53.302;-6.362;2022-11-09T08:08:33;2.88;;;0.50;;
37787;SDS011;23627;53.302;-6.362;2022-11-09T08:10:59;2.65;;;0.47;;
37787;SDS011;23627;53.302;-6.362;2022-11-09T08:13:25;1.85;;;0.40;;
37787;SDS011;23627;53.302;-6.362;2022-11-09T08:15:50;3.42;;;0.40;;
37787;SDS011;23627;53.302;-6.362;2022-11-09T08:18:17;5.22;;;0.70;;
37787;SDS011;23627;53.302;-6.362;2022-11-09T08:20:45;2.83;;;0.40;;
37787;SDS011;23627;53.302;-6.362;2022-11-09T08:23:11;3.20;;;0.70;;
37787;SDS011;23627;53.302;-6.362;2022-11-09T08:25:38;1.83;;;0.40;;
37787;SDS011;23627;53.302;-6.362;2022-11-09T08:28:04;3.17;;;0.60;;
37787;SDS011;23627;53.302;-6.362;2022-11-09T08:30:30;3.60;;;0.50;;
37787;SDS011;23627;53.302;-6.362;2022-11-09T08:32:57;2.38;;;0.40;;
37787;SDS011;23627;53.302;-6.362;2022-11-09T08:35:24;3.20;;;0.75;;
37787;SDS011;23627;53.302;-6.362;2022-11-09T08:37:51;2.58;;;0.60;;
37787;SDS011;23627;53.302;-6.362;2022-11-09T08:40:22;2.55;;;0.40;;
37787;SDS011;23627;53.302;-6.362;2022-11-09T08:42:50;2.67;;;0.40;;
37787;SDS011;23627;53.302;-6.362;2022-11-09T08:45:17;3.38;;;0.60;;
37787;SDS011;23627;53.302;-6.362;2022-11-09T08:47:43;3.22;;;0.50;;
37787;SDS011;23627;53.302;-6.362;2022-11-09T08:50:09;5.32;;;0.70;;
37787;SDS011;23627;53.302;-6.362;2022-11-09T08:52:38;4.45;;;0.50;;
37787;SDS011;23627;53.302;-6.362;2022-11-09T08:55:05;2.95;;;0.70;;
37787;SDS011;23627;53.302;-6.362;2022-11-09T08:57:31;3.03;;;0.50;;
37787;SDS011;23627;53.302;-6.362;2022-11-09T08:59:57;2.30;;;0.50;;
37787;SDS011;23627;53.302;-6.362;2022-11-09T09:02:25;3.85;;;0.50;;
37787;SDS011;23627;53.302;-6.362;2022-11-09T09:04:50;2.20;;;0.35;;
37787;SDS011;23627;53.302;-6.362;2022-11-09T09:07:16;4.43;;;0.50;;
37787;SDS011;23627;53.302;-6.362;2022-11-09T09:09:44;4.88;;;0.40;;
37787;SDS011;23627;53.302;-6.362;2022-11-09T09:12:10;3.30;;;0.50;;
37787;SDS011;23627;53.302;-6.362;2022-11-09T09:14:35;1.88;;;0.40;;
37787;SDS011;23627;53.302;-6.362;2022-11-09T09:17:02;3.17;;;0.47;;
37787;SDS011;23627;53.302;-6.362;2022-11-09T09:19:27;1.70;;;0.47;;
37787;SDS011;23627;53.302;-6.362;2022-11-09T09:21:53;2.45;;;0.40;;
37787;SDS011;23627;53.302;-6.362;2022-11-09T09:24:19;3.55;;;0.47;;
37787;SDS011;23627;53.302;-6.362;2022-11-09T09:26:45;3.63;;;0.43;;
37787;SDS011;23627;53.302;-6.362;2022-11-09T09:29:12;2.25;;;0.45;;
37787;SDS011;23627;53.302;-6.362;2022-11-09T09:31:38;5.25;;;0.60;;
37787;SDS011;23627;53.302;-6.362;2022-11-09T09:34:04;2.45;;;0.30;;
37787;SDS011;23627;53.302;-6.362;2022-11-09T09:36:30;1.95;;;0.70;;
37787;SDS011;23627;53.302;-6.362;2022-11-09T09:38:56;3.47;;;1.17;;
37787;SDS011;23627;53.302;-6.362;2022-11-09T09:44:35;2.67;;;0.40;;
37787;SDS011;23627;53.302;-6.362;2022-11-09T09:49:44;2.88;;;0.60;;
37787;SDS011;23627;53.302;-6.362;2022-11-09T09:54:58;2.35;;;0.30;;
37787;SDS011;23627;53.302;-6.362;2022-11-09T09:57:33;1.45;;;0.60;;
37787;SDS011;23627;53.302;-6.362;2022-11-09T10:00:00;2.17;;;0.38;;
37787;SDS011;23627;53.302;-6.362;2022-11-09T10:02:30;1.80;;;0.40;;
37787;SDS011;23627;53.302;-6.362;2022-11-09T10:05:00;1.35;;;0.50;;
37787;SDS011;23627;53.302;-6.362;2022-11-09T10:07:44;1.60;;;0.40;;
37787;SDS011;23627;53.302;-6.362;2022-11-09T10:26:42;1.98;;;0.40;;
37787;SDS011;23627;53.302;-6.362;2022-11-09T10:29:28;1.75;;;0.40;;
37787;SDS011;23627;53.302;-6.362;2022-11-09T10:32:12;3.17;;;0.50;;
37787;SDS011;23627;53.302;-6.362;2022-11-09T10:34:46;2.70;;;0.50;;
37787;SDS011;23627;53.302;-6.362;2022-11-09T10:37:20;2.40;;;0.47;;
37787;SDS011;23627;53.302;-6.362;2022-11-09T10:40:10;1.85;;;0.40;;
37787;SDS011;23627;53.302;-6.362;2022-11-09T10:42:50;2.70;;;0.50;;
37787;SDS011;23627;53.302;-6.362;2022-11-09T10:45:24;4.22;;;0.50;;
37787;SDS011;23627;53.302;-6.362;2022-11-09T10:47:51;2.00;;;0.50;;
37787;SDS011;23627;53.302;-6.362;2022-11-09T10:52:48;1.48;;;0.30;;
37787;SDS011;23627;53.302;-6.362;2022-11-09T10:55:16;2.47;;;0.30;;
37787;SDS011;23627;53.302;-6.362;2022-11-09T10:57:58;3.50;;;0.50;;
37787;SDS011;23627;53.302;-6.362;2022-11-09T11:00:26;3.80;;;0.60;;
37787;SDS011;23627;53.302;-6.362;2022-11-09T11:02:53;4.82;;;1.05;;
37787;SDS011;23627;53.302;-6.362;2022-11-09T11:05:24;3.08;;;0.68;;
37787;SDS011;23627;53.302;-6.362;2022-11-09T11:07:51;3.40;;;0.50;;
37787;SDS011;23627;53.302;-6.362;2022-11-09T11:10:18;2.08;;;0.40;;
37787;SDS011;23627;53.302;-6.362;2022-11-09T11:12:45;2.17;;;0.50;;
37787;SDS011;23627;53.302;-6.362;2022-11-09T11:15:22;4.35;;;0.45;;
37787;SDS011;23627;53.302;-6.362;2022-11-09T11:17:48;3.85;;;0.63;;
37787;SDS011;23627;53.302;-6.362;2022-11-09T11:31:16;3.17;;;0.55;;
37787;SDS011;23627;53.302;-6.362;2022-11-09T11:33:44;4.18;;;0.70;;
37787;SDS011;23627;53.302;-6.362;2022-11-09T11:36:24;4.30;;;0.63;;
37787;SDS011;23627;53.302;-6.362;2022-11-09T12:07:48;8.15;;;1.00;;
37787;SDS011;23627;53.302;-6.362;2022-11-09T12:10:44;8.25;;;1.00;;
37787;SDS011;23627;53.302;-6.362;2022-11-09T12:16:08;6.10;;;0.97;;
37787;SDS011;23627;53.302;-6.362;2022-11-09T12:24:28;5.55;;;0.70;;
37787;SDS011;23627;53.302;-6.362;2022-11-09T12:27:42;5.03;;;0.70;;
37787;SDS011;23627;53.302;-6.362;2022-11-09T12:30:22;3.20;;;0.80;;
37787;SDS011;23627;53.302;-6.362;2022-11-09T12:35:32;3.72;;;0.70;;
37787;SDS011;23627;53.302;-6.362;2022-11-09T12:38:24;4.50;;;0.70;;
37787;SDS011;23627;53.302;-6.362;2022-11-09T12:40:56;7.05;;;0.88;;
37787;SDS011;23627;53.302;-6.362;2022-11-09T12:44:12;6.72;;;0.90;;
37787;SDS011;23627;53.302;-6.362;2022-11-09T12:46:34;5.28;;;0.98;;
37787;SDS011;23627;53.302;-6.362;2022-11-09T12:49:21;4.70;;;1.00;;
37787;SDS011;23627;53.302;-6.362;2022-11-09T12:52:02;7.03;;;0.82;;
37787;SDS011;23627;53.302;-6.362;2022-11-09T12:54:32;5.82;;;0.70;;
37787;SDS011;23627;53.302;-6.362;2022-11-09T12:57:03;3.20;;;0.90;;
37787;SDS011;23627;53.302;-6.362;2022-11-09T12:59:32;6.57;;;0.90;;
37787;SDS011;23627;53.302;-6.362;2022-11-09T13:02:00;4.90;;;0.65;;
37787;SDS011;23627;53.302;-6.362;2022-11-09T13:04:27;5.30;;;0.75;;
37787;SDS011;23627;53.302;-6.362;2022-11-09T13:09:31;5.05;;;1.10;;
37787;SDS011;23627;53.302;-6.362;2022-11-09T13:11:58;6.30;;;0.90;;
37787;SDS011;23627;53.302;-6.362;2022-11-09T13:14:39;5.93;;;0.90;;
37787;SDS011;23627;53.302;-6.362;2022-11-09T13:19:54;5.65;;;0.80;;
37787;SDS011;23627;53.302;-6.362;2022-11-09T13:24:57;5.07;;;0.77;;
37787;SDS011;23627;53.302;-6.362;2022-11-09T13:33:23;4.68;;;0.80;;
37787;SDS011;23627;53.302;-6.362;2022-11-09T13:38:17;3.33;;;0.70;;
37787;SDS011;23627;53.302;-6.362;2022-11-09T13:40:59;3.63;;;0.70;;
37787;SDS011;23627;53.302;-6.362;2022-11-09T13:44:03;3.63;;;0.70;;
37787;SDS011;23627;53.302;-6.362;2022-11-09T13:46:50;2.35;;;0.50;;
37787;SDS011;23627;53.302;-6.362;2022-11-09T13:49:41;5.60;;;0.98;;
37787;SDS011;23627;53.302;-6.362;2022-11-09T13:55:34;2.60;;;0.60;;
37787;SDS011;23627;53.302;-6.362;2022-11-09T13:58:07;4.18;;;0.55;;
37787;SDS011;23627;53.302;-6.362;2022-11-09T14:00:45;3.65;;;0.50;;
37787;SDS011;23627;53.302;-6.362;2022-11-09T14:05:45;5.20;;;0.73;;
37787;SDS011;23627;53.302;-6.362;2022-11-09T14:08:22;5.03;;;0.60;;
37787;SDS011;23627;53.302;-6.362;2022-11-09T14:11:32;3.40;;;0.60;;
37787;SDS011;23627;53.302;-6.362;2022-11-09T14:22:29;3.65;;;0.60;;
37787;SDS011;23627;53.302;-6.362;2022-11-09T14:25:02;2.97;;;0.50;;
37787;SDS011;23627;53.302;-6.362;2022-11-09T14:27:44;2.70;;;0.50;;
37787;SDS011;23627;53.302;-6.362;2022-11-09T14:30:21;3.70;;;0.60;;
37787;SDS011;23627;53.302;-6.362;2022-11-09T14:32:53;2.95;;;0.80;;
37787;SDS011;23627;53.302;-6.362;2022-11-09T14:38:00;1.98;;;0.70;;
37787;SDS011;23627;53.302;-6.362;2022-11-09T14:40:38;3.55;;;0.82;;
37787;SDS011;23627;53.302;-6.362;2022-11-09T14:45:59;2.08;;;0.52;;
37787;SDS011;23627;53.302;-6.362;2022-11-09T14:48:27;3.53;;;0.52;;
37787;SDS011;23627;53.302;-6.362;2022-11-09T14:50:55;3.90;;;0.60;;
37787;SDS011;23627;53.302;-6.362;2022-11-09T14:53:28;3.08;;;0.60;;
37787;SDS011;23627;53.302;-6.362;2022-11-09T14:55:59;3.80;;;0.70;;
37787;SDS011;23627;53.302;-6.362;2022-11-09T14:58:27;2.50;;;0.60;;
37787;SDS011;23627;53.302;-6.362;2022-11-09T15:03:44;4.85;;;0.70;;
37787;SDS011;23627;53.302;-6.362;2022-11-09T15:06:28;3.00;;;0.60;;
37787;SDS011;23627;53.302;-6.362;2022-11-09T15:08:56;1.77;;;0.50;;
37787;SDS011;23627;53.302;-6.362;2022-11-09T15:11:32;3.72;;;0.70;;
37787;SDS011;23627;53.302;-6.362;2022-11-09T15:14:14;5.38;;;0.80;;
37787;SDS011;23627;53.302;-6.362;2022-11-09T15:16:55;5.20;;;0.68;;
37787;SDS011;23627;53.302;-6.362;2022-11-09T15:19:31;3.53;;;0.77;;
37787;SDS011;23627;53.302;-6.362;2022-11-09T15:22:01;7.10;;;0.82;;
37787;SDS011;23627;53.302;-6.362;2022-11-09T15:24:28;4.60;;;0.75;;
37787;SDS011;23627;53.302;-6.362;2022-11-09T15:27:27;4.80;;;0.85;;
37787;SDS011;23627;53.302;-6.362;2022-11-09T15:29:55;4.82;;;0.82;;
37787;SDS011;23627;53.302;-6.362;2022-11-09T15:32:21;4.00;;;0.70;;
37787;SDS011;23627;53.302;-6.362;2022-11-09T15:39:49;3.97;;;0.82;;
37787;SDS011;23627;53.302;-6.362;2022-11-09T15:42:16;6.70;;;1.20;;
37787;SDS011;23627;53.302;-6.362;2022-11-09T15:44:43;7.40;;;1.48;;
37787;SDS011;23627;53.302;-6.362;2022-11-09T15:47:19;5.28;;;1.00;;
37787;SDS011;23627;53.302;-6.362;2022-11-09T15:49:45;6.20;;;0.93;;
37787;SDS011;23627;53.302;-6.362;2022-11-09T15:52:11;5.63;;;0.90;;
37787;SDS011;23627;53.302;-6.362;2022-11-09T15:54:37;6.82;;;1.15;;
37787;SDS011;23627;53.302;-6.362;2022-11-09T15:57:03;5.35;;;1.15;;
37787;SDS011;23627;53.302;-6.362;2022-11-09T15:59:28;4.93;;;1.08;;
37787;SDS011;23627;53.302;-6.362;2022-11-09T16:01:54;5.18;;;1.00;;
37787;SDS011;23627;53.302;-6.362;2022-11-09T16:04:20;3.30;;;0.90;;
37787;SDS011;23627;53.302;-6.362;2022-11-09T16:06:46;3.17;;;0.75;;
37787;SDS011;23627;53.302;-6.362;2022-11-09T16:09:12;4.00;;;0.75;;
37787;SDS011;23627;53.302;-6.362;2022-11-09T16:11:38;4.13;;;0.85;;
37787;SDS011;23627;53.302;-6.362;2022-11-09T16:14:04;4.07;;;0.80;;
37787;SDS011;23627;53.302;-6.362;2022-11-09T16:16:29;5.03;;;1.17;;
37787;SDS011;23627;53.302;-6.362;2022-11-09T16:18:55;4.88;;;1.00;;
37787;SDS011;23627;53.302;-6.362;2022-11-09T16:21:22;4.72;;;0.95;;
37787;SDS011;23627;53.302;-6.362;2022-11-09T16:23:48;3.67;;;0.98;;
37787;SDS011;23627;53.302;-6.362;2022-11-09T16:26:16;5.45;;;1.27;;
37787;SDS011;23627;53.302;-6.362;2022-11-09T16:28:43;5.13;;;0.95;;
37787;SDS011;23627;53.302;-6.362;2022-11-09T16:31:09;3.47;;;0.88;;
37787;SDS011;23627;53.302;-6.362;2022-11-09T16:33:36;5.00;;;0.90;;
37787;SDS011;23627;53.302;-6.362;2022-11-09T16:36:10;5.68;;;1.17;;
37787;SDS011;23627;53.302;-6.362;2022-11-09T16:38:46;4.88;;;1.10;;
37787;SDS011;23627;53.302;-6.362;2022-11-09T16:41:15;5.65;;;1.10;;
37787;SDS011;23627;53.302;-6.362;2022-11-09T16:43:43;5.63;;;1.30;;
37787;SDS011;23627;53.302;-6.362;2022-11-09T16:46:11;5.95;;;1.50;;
37787;SDS011;23627;53.302;-6.362;2022-11-09T16:48:43;6.18;;;1.33;;
37787;SDS011;23627;53.302;-6.362;2022-11-09T16:51:09;6.68;;;1.83;;
37787;SDS011;23627;53.302;-6.362;2022-11-09T16:53:35;7.03;;;1.40;;
37787;SDS011;23627;53.302;-6.362;2022-11-09T16:56:00;6.43;;;1.60;;
37787;SDS011;23627;53.302;-6.362;2022-11-09T16:58:26;7.75;;;1.65;;